Latest Weather Observations for Batchelor

IDD60901

Issued at 7:35 pm CST Saturday 30 August 2014 (issued every 10 minutes, with the page automatically refreshed every 10 minutes)

About weather observations | Map of Darwin area stations | Latest observations for Darwin area | Other Formats
Station Details ID: 014272 Name: BATCHELOR AIRPORT Lat: -13.05 Lon: 131.03 Height: 104.0 m
Data from the previous 72 hours. | See also: Recent months at Batchelor
Date/Time
CST
Tmp

°C
App
Tmp
°C
Dew
Point
°C
Rel
Hum
%
Delta-T

°C
Wind Press
QNH
hPa
Press
MSL
hPa
Rain
since
9 am
mm
Dir
 
Spd
km/h
Gust
km/h
Spd
kts
Gust
kts
30/07:30pm 23.6 21.8 1.3 23 10.5 SE 0 0 0 0 1012.0 1011.5 0.0
30/07:00pm 24.9 22.2 0.4 20 11.4 SE 4 6 2 3 1011.8 1011.3 0.0
30/06:30pm 29.0 25.6 -2.2 13 14.3 ESE 6 7 3 4 1011.5 1011.0 0.0
30/06:00pm 31.2 27.4 -4.0 10 15.9 SE 7 11 4 6 1011.2 1010.7 0.0
30/05:30pm 31.9 28.1 -3.5 10 16.2 SSE 7 15 4 8 1010.9 1010.4 0.0
30/05:00pm 32.5 27.9 -4.4 9 16.7 SE 11 15 6 8 1010.8 1010.3 0.0
30/04:30pm 32.4 28.3 -3.1 10 16.4 E 9 17 5 9 1010.6 1010.1 0.0
30/04:00pm 33.0 28.2 -2.6 10 16.7 E 13 24 7 13 1010.6 1010.1 0.0
30/03:30pm 33.2 28.0 -2.5 10 16.8 ESE 15 26 8 14 1010.8 1010.3 0.0
30/03:00pm 32.6 28.3 -1.7 11 16.3 ESE 11 22 6 12 1011.1 1010.6 0.0
30/02:30pm 32.3 27.7 -0.7 12 15.9 E 13 20 7 11 1011.7 1011.2 0.0
30/02:00pm 32.5 28.1 0.6 13 15.7 SE 13 22 7 12 1012.1 1011.6 0.0
30/01:30pm 32.1 27.6 2.2 15 15.1 E 15 24 8 13 1012.5 1012.0 0.0
30/01:00pm 31.1 - 4.0 18 14.0 - - - - - 1013.4 - -
30/12:30pm 31.1 26.6 6.9 22 13.1 ESE 20 28 11 15 1014.1 1013.5 0.0
30/12:00pm 29.9 26.8 7.2 24 12.3 E 13 20 7 11 1014.9 1014.3 0.0
30/11:30am 28.9 26.2 9.1 29 11.0 ENE 13 20 7 11 1015.5 1014.9 0.0
30/11:00am 28.4 26.4 11.5 35 9.8 E 13 22 7 12 1016.2 1015.7 0.0
30/10:30am 26.3 25.4 12.7 43 7.9 ENE 9 15 5 8 1016.5 1016.0 0.0
30/10:00am 25.4 26.1 14.5 51 6.5 NNE 4 7 2 4 1016.6 1016.1 0.0
30/09:30am 22.9 23.6 15.5 63 4.4 E 6 9 3 5 1016.6 1016.1 0.0
30/09:00am 21.4 22.2 15.9 71 3.3 E 6 7 3 4 1016.6 1016.1 0.0
30/08:30am 19.7 21.7 16.0 79 2.2 CALM 0 0 0 0 1016.2 1015.7 0.0
30/08:00am 17.1 18.9 15.6 91 0.9 CALM 0 0 0 0 1015.8 1015.2 0.0
30/07:30am 14.7 16.0 14.1 96 0.3 CALM 0 0 0 0 1015.3 1014.7 0.0
30/07:00am 13.5 13.5 12.4 93 0.6 ENE 4 6 2 3 1015.2 1014.6 0.0
30/06:30am 14.0 14.4 12.6 91 0.8 ENE 2 6 1 3 1014.9 1014.3 0.0
30/06:00am 15.5 15.6 14.5 94 0.6 ENE 7 9 4 5 1014.6 1014.0 0.0
30/05:30am 14.1 14.3 13.1 94 0.6 NW 4 4 2 2 1014.2 1013.6 0.0
30/05:00am 13.9 14.5 13.0 94 0.5 NW 2 2 1 1 1014.0 1013.4 0.0
30/04:30am 14.3 15.5 13.8 97 0.3 CALM 0 0 0 0 1013.8 1013.2 0.0
30/04:00am 14.2 15.3 13.4 95 0.4 CALM 0 0 0 0 1013.8 1013.2 0.0
30/03:30am 13.4 14.1 12.3 93 0.6 CALM 0 0 0 0 1014.0 1013.4 0.0
30/03:00am 13.3 13.8 11.7 90 0.9 NW 0 0 0 0 1014.0 1013.4 0.0
30/02:30am 14.6 15.5 12.8 89 1.0 CALM 0 0 0 0 1014.2 1013.6 0.0
30/02:00am 15.5 16.7 13.9 90 0.9 CALM 0 0 0 0 1014.4 1013.8 0.0
30/01:30am 15.9 17.2 14.1 89 1.0 CALM 0 0 0 0 1014.5 1013.9 0.0
30/01:00am 16.1 17.3 13.8 86 1.3 CALM 0 0 0 0 1014.5 1013.9 0.0
30/12:30am 16.7 17.9 13.8 83 1.6 CALM 0 0 0 0 1014.5 1013.9 0.0
30/12:00am 17.6 18.3 13.3 76 2.4 NW 2 4 1 2 1014.5 1013.9 0.0
 
Date/Time
CST
Tmp

°C
App
Tmp
°C
Dew
Point
°C
Rel
Hum
%
Delta-T

°C
Wind Press
QNH
hPa
Press
MSL
hPa
Rain
since
9 am
mm
Dir
 
Spd
km/h
Gust
km/h
Spd
kts
Gust
kts
29/11:30pm 20.4 21.0 15.2 72 3.1 NW 6 7 3 4 1014.4 1013.8 0.0
29/11:00pm 20.8 21.2 15.4 71 3.2 NW 7 9 4 5 1014.5 1013.9 0.0
29/10:30pm 20.4 20.6 14.1 67 3.7 NW 6 6 3 3 1014.5 1013.9 0.0
29/10:00pm 21.0 21.1 13.9 64 4.1 NW 6 7 3 4 1014.5 1013.9 0.0
29/09:30pm 21.4 21.2 13.1 59 4.8 NW 6 7 3 4 1014.4 1013.8 0.0
29/09:00pm 22.3 21.8 12.5 53 5.6 NW 7 11 4 6 1014.3 1013.7 0.0
29/08:30pm 23.2 22.3 11.3 47 6.7 NW 7 15 4 8 1013.9 1013.3 0.0
29/08:00pm 21.0 19.2 1.3 27 9.0 CALM 0 0 0 0 1013.3 1012.7 0.0
29/07:30pm 22.9 21.3 2.4 26 9.8 CALM 0 2 0 1 1013.1 1012.5 0.0
29/07:00pm 24.1 22.3 1.1 22 10.8 CALM 0 0 0 0 1012.9 1012.3 0.0
29/06:30pm 27.4 25.0 -0.6 16 13.0 S 2 4 1 2 1012.4 1011.9 0.0
29/06:00pm 30.5 27.2 -4.5 10 15.6 SSE 4 7 2 4 1012.1 1011.6 0.0
29/05:30pm 31.4 27.6 -5.2 9 16.2 S 6 9 3 5 1012.0 1011.5 0.0
29/05:00pm 32.1 28.2 -6.3 8 16.8 SSE 6 15 3 8 1011.9 1011.4 0.0
29/04:30pm 31.8 27.7 -6.5 8 16.7 ESE 7 15 4 8 1012.0 1011.5 0.0
29/04:00pm 31.5 27.0 -6.7 8 16.5 SSE 9 17 5 9 1012.1 1011.6 0.0
29/03:30pm 32.1 27.7 -6.3 8 16.8 E 9 20 5 11 1012.5 1012.0 0.0
29/03:00pm 32.0 28.1 -6.3 8 16.7 S 6 13 3 7 1012.8 1012.2 0.0
29/02:30pm 31.2 26.7 -6.9 8 16.4 SSE 9 20 5 11 1013.0 1012.4 0.0
29/02:00pm 31.1 25.8 -7.0 8 16.3 SE 13 28 7 15 1013.5 1012.9 0.0
29/01:30pm 30.9 26.1 -5.6 9 16.0 SE 11 17 6 9 1013.7 1013.1 0.0
29/01:00pm 30.3 23.8 -6.1 9 15.7 ESE 20 30 11 16 1014.1 1013.5 0.0
29/12:30pm 29.9 23.7 -5.0 10 15.3 ENE 19 26 10 14 1014.7 1014.1 0.0
29/12:00pm 29.6 24.7 2.0 17 13.7 ESE 17 26 9 14 1015.3 1014.7 0.0
29/11:30am 28.6 24.1 4.2 21 12.5 ESE 17 26 9 14 1015.6 1015.0 0.0
29/11:00am 27.8 24.5 4.8 23 11.8 E 11 20 6 11 1016.0 1015.5 0.0
29/10:30am 27.1 24.9 8.0 30 10.3 ESE 9 17 5 9 1016.6 1016.1 0.0
29/10:00am 26.0 25.3 10.2 37 8.8 E 4 7 2 4 1016.8 1016.3 0.0
29/09:30am 24.4 23.2 10.3 41 7.8 SE 7 11 4 6 1016.7 1016.2 0.0
29/09:00am 22.7 22.1 11.7 49 6.2 SSE 6 7 3 4 1016.6 1016.1 0.0
29/08:30am 20.5 20.0 12.0 58 4.8 E 6 9 3 5 1016.2 1015.7 0.0
29/08:00am 18.1 18.7 13.0 72 2.9 ENE 2 4 1 2 1015.8 1015.2 0.0
29/07:30am 14.1 14.2 11.4 84 1.4 ENE 2 4 1 2 1015.7 1015.1 0.0
29/07:00am 13.3 13.7 11.2 87 1.1 CALM 0 0 0 0 1015.3 1014.7 0.0
29/06:30am 13.3 13.7 11.2 87 1.1 CALM 0 0 0 0 1015.0 1014.4 0.0
29/06:00am 13.4 13.7 10.9 85 1.3 CALM 0 0 0 0 1014.9 1014.3 0.0
29/05:30am 13.6 13.1 10.6 82 1.6 ENE 4 7 2 4 1014.6 1014.0 0.0
29/05:00am 13.8 13.8 11.0 83 1.5 ENE 2 7 1 4 1014.3 1013.7 0.0
29/04:30am 14.8 15.3 11.6 81 1.7 CALM 0 0 0 0 1014.1 1013.5 0.0
29/04:00am 15.1 15.6 11.7 80 1.8 CALM 0 0 0 0 1013.9 1013.3 0.0
29/03:30am 15.7 15.4 11.3 75 2.4 ENE 4 6 2 3 1014.0 1013.4 0.0
29/03:00am 15.5 15.3 11.7 78 2.1 W 4 4 2 2 1014.0 1013.4 0.0
29/02:30am 15.7 16.4 12.1 79 2.0 CALM 0 0 0 0 1014.1 1013.5 0.0
29/02:00am 15.0 15.4 11.4 79 1.9 CALM 0 0 0 0 1014.0 1013.4 0.0
29/01:30am 15.3 15.7 11.1 76 2.3 CALM 0 0 0 0 1014.1 1013.5 0.0
29/01:00am 15.6 15.9 11.0 74 2.5 CALM 0 0 0 0 1014.2 1013.6 0.0
29/12:30am 16.3 16.6 11.0 71 2.9 CALM 0 0 0 0 1014.3 1013.7 0.0
29/12:00am 16.3 16.5 10.6 69 3.0 CALM 0 0 0 0 1014.6 1014.0 0.0
 
Date/Time
CST
Tmp

°C
App
Tmp
°C
Dew
Point
°C
Rel
Hum
%
Delta-T

°C
Wind Press
QNH
hPa
Press
MSL
hPa
Rain
since
9 am
mm
Dir
 
Spd
km/h
Gust
km/h
Spd
kts
Gust
kts
28/11:30pm 16.6 16.6 11.3 71 2.9 W 2 4 1 2 1014.8 1014.2 0.0
28/11:00pm 17.6 17.9 10.9 65 3.6 CALM 0 2 0 1 1014.8 1014.2 0.0
28/10:30pm 17.7 17.3 9.6 59 4.3 W 2 4 1 2 1014.7 1014.1 0.0
28/10:00pm 20.7 20.3 11.1 54 5.3 W 4 6 2 3 1014.7 1014.1 0.0
28/09:30pm 21.1 20.9 10.6 51 5.8 W 2 6 1 3 1014.6 1014.0 0.0
28/09:00pm 22.6 21.6 10.4 46 6.7 WNW 6 11 3 6 1014.5 1013.9 0.0
28/08:30pm 23.0 20.5 8.3 39 7.8 NNW 11 17 6 9 1014.2 1013.6 0.0
28/08:00pm 21.5 19.6 0.7 25 9.5 CALM 0 0 0 0 1013.4 1012.8 0.0
28/07:30pm 22.5 20.5 -0.3 22 10.3 CALM 0 0 0 0 1013.1 1012.5 0.0
28/07:00pm 23.6 20.8 -0.6 20 10.9 SSE 4 6 2 3 1012.5 1012.0 0.0
28/06:30pm 27.9 24.6 -4.1 12 14.1 SE 4 6 2 3 1012.2 1011.7 0.0
28/06:00pm 30.4 26.6 -6.0 9 15.8 SSE 6 9 3 5 1012.0 1011.5 0.0
28/05:30pm 31.4 26.9 -6.8 8 16.5 SSE 9 17 5 9 1011.8 1011.3 0.0
28/05:00pm 31.7 27.5 -8.3 7 16.9 SSE 7 15 4 8 1011.6 1011.1 0.0
28/04:30pm 31.9 26.5 -8.1 7 17.0 SSE 13 24 7 13 1011.5 1011.0 0.0
28/04:00pm 32.6 26.9 -7.6 7 17.3 ESE 15 26 8 14 1011.6 1011.1 0.0
28/03:30pm 32.1 27.1 -8.0 7 17.1 SSE 11 22 6 12 1011.6 1011.1 0.0
28/03:00pm 32.3 25.8 -7.8 7 17.1 ESE 19 28 10 15 1011.9 1011.4 0.0
28/02:30pm 31.9 25.4 -8.1 7 17.0 E 19 28 10 15 1012.2 1011.7 0.0
28/02:00pm 31.7 26.1 -6.6 8 16.6 SSE 15 20 8 11 1012.5 1012.0 0.0
28/01:30pm 31.0 24.6 -7.1 8 16.3 E 19 28 10 15 1013.1 1012.5 0.0
28/01:00pm 30.8 24.7 -7.2 8 16.2 SE 17 22 9 12 1013.8 1013.2 0.0
28/12:30pm 29.7 23.0 -8.0 8 15.7 SE 20 24 11 13 1014.4 1013.8 0.0
28/12:00pm 29.5 21.8 -6.7 9 15.4 E 26 32 14 17 1014.9 1014.3 0.0
28/11:30am 29.6 22.3 -6.6 9 15.4 ESE 24 33 13 18 1015.2 1014.6 0.0
28/11:00am 28.3 - -6.2 10 14.6 - - - - - 1015.5 - -
28/10:30am 27.9 21.2 -4.1 12 14.0 ESE 22 39 12 21 1015.8 1015.2 0.0
28/10:00am 26.6 21.7 -0.4 17 12.5 ESE 15 26 8 14 1016.0 1015.5 0.0
28/09:30am 24.7 20.2 2.2 23 10.8 SE 15 22 8 12 1016.3 1015.8 0.0
28/09:00am 23.3 19.7 4.8 30 9.2 SE 13 19 7 10 1016.3 1015.8 0.0
28/08:30am 21.2 20.3 10.7 51 5.8 SE 6 7 3 4 1016.1 1015.6 0.0
28/08:00am 18.1 18.8 12.1 68 3.3 CALM 0 2 0 1 1015.8 1015.2 0.0
28/07:30am 13.8 13.8 11.3 85 1.3 ESE 2 2 1 1 1015.5 1014.9 0.0
28/07:00am 12.6 12.4 10.3 86 1.2 ESE 2 4 1 2 1015.1 1014.5 0.0
28/06:30am 13.4 13.7 10.8 84 1.4 CALM 0 0 0 0 1014.7 1014.1 0.0
28/06:00am 13.0 13.2 10.5 85 1.3 CALM 0 0 0 0 1014.5 1013.9 0.0
28/05:30am 13.4 13.5 10.2 81 1.7 CALM 0 0 0 0 1014.1 1013.5 0.0
28/05:00am 13.7 13.9 10.5 81 1.7 CALM 0 0 0 0 1014.0 1013.4 0.0
28/04:30am 13.8 13.9 10.0 78 2.0 CALM 0 0 0 0 1014.1 1013.5 0.0
28/04:00am 14.0 13.3 10.0 77 2.1 ESE 4 7 2 4 1014.1 1013.5 0.0
28/03:30am 14.8 14.3 10.8 77 2.1 E 4 11 2 6 1014.0 1013.4 0.0
28/03:00am 15.4 15.1 10.2 71 2.7 NNE 2 4 1 2 1013.9 1013.3 0.0
28/02:30am 16.2 16.5 10.9 71 2.8 CALM 0 0 0 0 1014.2 1013.6 0.0
28/02:00am 16.7 16.1 10.5 67 3.3 NNE 4 6 2 3 1014.4 1013.8 0.0
28/01:30am 15.6 15.9 10.8 73 2.6 CALM 0 0 0 0 1014.6 1014.0 0.0
28/01:00am 16.3 16.5 10.4 68 3.1 CALM 0 0 0 0 1014.8 1014.2 0.0
28/12:30am 16.9 16.9 11.0 68 3.2 N 2 4 1 2 1015.0 1014.4 0.0
28/12:00am 18.1 18.3 10.5 61 4.1 CALM 0 2 0 1 1014.9 1014.3 0.0
 
Date/Time
CST
Tmp

°C
App
Tmp
°C
Dew
Point
°C
Rel
Hum
%
Delta-T

°C
Wind Press
QNH
hPa
Press
MSL
hPa
Rain
since
9 am
mm
Dir
 
Spd
km/h
Gust
km/h
Spd
kts
Gust
kts
27/11:30pm 20.2 19.5 11.4 57 4.9 NNW 6 9 3 5 1014.7 1014.1 0.0
27/11:00pm 21.4 20.6 11.1 52 5.7 W 6 7 3 4 1014.4 1013.8 0.0
27/10:30pm 22.0 21.2 11.1 50 6.1 W 6 9 3 5 1014.3 1013.7 0.0
27/10:00pm 22.6 21.8 11.0 48 6.5 W 6 7 3 4 1014.4 1013.8 0.0
27/09:30pm 22.8 21.8 10.9 47 6.6 WNW 7 11 4 6 1014.3 1013.7 0.0
27/09:00pm 21.2 19.7 6.7 39 7.4 S 4 9 2 5 1014.0 1013.4 0.0
27/08:30pm 21.8 20.7 5.3 34 8.2 CALM 0 0 0 0 1013.6 1013.0 0.0
27/08:00pm 22.9 21.8 5.3 32 8.8 CALM 0 0 0 0 1013.3 1012.7 0.0

Latest Capital City Observations: Canberra | Sydney | Melbourne | Brisbane | Adelaide | Perth | Hobart | Darwin

Other Formats:

Comma delimited format used in spreadsheet applications
http://www.bom.gov.au/fwo/IDD60901/IDD60901.94125.axf

JavaScript Object Notation format (JSON) in row-major order
http://www.bom.gov.au/fwo/IDD60901/IDD60901.94125.json